sensor_id;sensor_type;location;lat;lon;timestamp;P1;durP1;ratioP1;P2;durP2;ratioP2
7683;SDS011;3884;48.616;12.872;2023-07-22T00:01:59;4.73;;;2.83;;
7683;SDS011;3884;48.616;12.872;2023-07-22T00:04:26;3.50;;;2.60;;
7683;SDS011;3884;48.616;12.872;2023-07-22T00:06:53;4.00;;;2.80;;
7683;SDS011;3884;48.616;12.872;2023-07-22T00:09:20;5.30;;;2.90;;
7683;SDS011;3884;48.616;12.872;2023-07-22T00:11:50;4.17;;;2.90;;
7683;SDS011;3884;48.616;12.872;2023-07-22T00:14:17;3.97;;;2.67;;
7683;SDS011;3884;48.616;12.872;2023-07-22T00:16:43;3.77;;;2.53;;
7683;SDS011;3884;48.616;12.872;2023-07-22T00:19:10;3.17;;;2.50;;
7683;SDS011;3884;48.616;12.872;2023-07-22T00:21:39;4.27;;;2.50;;
7683;SDS011;3884;48.616;12.872;2023-07-22T00:24:06;4.13;;;3.00;;
7683;SDS011;3884;48.616;12.872;2023-07-22T00:26:33;2.77;;;2.53;;
7683;SDS011;3884;48.616;12.872;2023-07-22T00:29:01;4.10;;;2.70;;
7683;SDS011;3884;48.616;12.872;2023-07-22T00:31:30;6.27;;;3.27;;
7683;SDS011;3884;48.616;12.872;2023-07-22T00:33:56;4.80;;;2.93;;
7683;SDS011;3884;48.616;12.872;2023-07-22T00:36:23;3.77;;;3.00;;
7683;SDS011;3884;48.616;12.872;2023-07-22T00:38:50;8.97;;;3.17;;
7683;SDS011;3884;48.616;12.872;2023-07-22T00:41:17;4.43;;;2.83;;
7683;SDS011;3884;48.616;12.872;2023-07-22T00:43:45;3.87;;;2.70;;
7683;SDS011;3884;48.616;12.872;2023-07-22T00:46:13;2.80;;;2.57;;
7683;SDS011;3884;48.616;12.872;2023-07-22T00:48:40;4.90;;;2.90;;
7683;SDS011;3884;48.616;12.872;2023-07-22T00:51:08;3.43;;;2.67;;
7683;SDS011;3884;48.616;12.872;2023-07-22T00:53:35;4.40;;;3.03;;
7683;SDS011;3884;48.616;12.872;2023-07-22T00:56:02;4.57;;;3.03;;
7683;SDS011;3884;48.616;12.872;2023-07-22T00:58:29;4.50;;;2.90;;
7683;SDS011;3884;48.616;12.872;2023-07-22T01:00:57;4.90;;;3.20;;
7683;SDS011;3884;48.616;12.872;2023-07-22T01:03:25;5.47;;;2.90;;
7683;SDS011;3884;48.616;12.872;2023-07-22T01:05:53;3.70;;;2.80;;
7683;SDS011;3884;48.616;12.872;2023-07-22T01:08:20;5.47;;;3.10;;
7683;SDS011;3884;48.616;12.872;2023-07-22T01:10:47;3.93;;;2.43;;
7683;SDS011;3884;48.616;12.872;2023-07-22T01:13:15;6.43;;;2.97;;
7683;SDS011;3884;48.616;12.872;2023-07-22T01:15:42;4.63;;;2.73;;
7683;SDS011;3884;48.616;12.872;2023-07-22T01:18:09;5.43;;;2.90;;
7683;SDS011;3884;48.616;12.872;2023-07-22T01:20:38;5.67;;;3.00;;
7683;SDS011;3884;48.616;12.872;2023-07-22T01:23:06;4.97;;;2.93;;
7683;SDS011;3884;48.616;12.872;2023-07-22T01:25:34;3.73;;;2.80;;
7683;SDS011;3884;48.616;12.872;2023-07-22T01:28:01;5.60;;;3.20;;
7683;SDS011;3884;48.616;12.872;2023-07-22T01:30:27;6.40;;;2.90;;
7683;SDS011;3884;48.616;12.872;2023-07-22T01:32:54;5.17;;;2.73;;
7683;SDS011;3884;48.616;12.872;2023-07-22T01:35:22;5.67;;;3.27;;
7683;SDS011;3884;48.616;12.872;2023-07-22T01:37:48;3.90;;;2.50;;
7683;SDS011;3884;48.616;12.872;2023-07-22T01:40:17;3.90;;;2.40;;
7683;SDS011;3884;48.616;12.872;2023-07-22T01:42:44;4.00;;;2.90;;
7683;SDS011;3884;48.616;12.872;2023-07-22T01:45:11;5.47;;;2.90;;
7683;SDS011;3884;48.616;12.872;2023-07-22T01:47:38;5.03;;;3.40;;
7683;SDS011;3884;48.616;12.872;2023-07-22T01:50:06;5.50;;;2.60;;
7683;SDS011;3884;48.616;12.872;2023-07-22T01:52:33;4.10;;;2.80;;
7683;SDS011;3884;48.616;12.872;2023-07-22T01:55:00;3.80;;;2.90;;
7683;SDS011;3884;48.616;12.872;2023-07-22T01:57:32;4.27;;;3.00;;
7683;SDS011;3884;48.616;12.872;2023-07-22T01:59:59;3.57;;;2.87;;
7683;SDS011;3884;48.616;12.872;2023-07-22T02:02:26;5.70;;;2.67;;
7683;SDS011;3884;48.616;12.872;2023-07-22T02:04:54;3.73;;;2.47;;
7683;SDS011;3884;48.616;12.872;2023-07-22T02:07:21;2.57;;;2.33;;
7683;SDS011;3884;48.616;12.872;2023-07-22T02:09:51;2.70;;;2.50;;
7683;SDS011;3884;48.616;12.872;2023-07-22T02:12:18;6.17;;;2.80;;
7683;SDS011;3884;48.616;12.872;2023-07-22T02:14:47;5.50;;;3.23;;
7683;SDS011;3884;48.616;12.872;2023-07-22T02:17:14;4.93;;;3.20;;
7683;SDS011;3884;48.616;12.872;2023-07-22T02:19:41;4.23;;;2.73;;
7683;SDS011;3884;48.616;12.872;2023-07-22T02:22:09;6.17;;;3.00;;
7683;SDS011;3884;48.616;12.872;2023-07-22T02:24:36;5.37;;;2.97;;
7683;SDS011;3884;48.616;12.872;2023-07-22T02:27:03;5.17;;;3.00;;
7683;SDS011;3884;48.616;12.872;2023-07-22T02:29:30;6.63;;;2.70;;
7683;SDS011;3884;48.616;12.872;2023-07-22T02:31:59;5.13;;;2.73;;
7683;SDS011;3884;48.616;12.872;2023-07-22T02:34:27;4.60;;;2.87;;
7683;SDS011;3884;48.616;12.872;2023-07-22T02:36:54;6.03;;;3.00;;
7683;SDS011;3884;48.616;12.872;2023-07-22T02:39:21;5.47;;;3.10;;
7683;SDS011;3884;48.616;12.872;2023-07-22T02:41:48;5.83;;;3.20;;
7683;SDS011;3884;48.616;12.872;2023-07-22T02:44:15;3.43;;;2.80;;
7683;SDS011;3884;48.616;12.872;2023-07-22T02:46:42;3.33;;;2.97;;
7683;SDS011;3884;48.616;12.872;2023-07-22T02:49:10;5.33;;;3.67;;
7683;SDS011;3884;48.616;12.872;2023-07-22T02:51:38;3.40;;;2.80;;
7683;SDS011;3884;48.616;12.872;2023-07-22T02:54:04;4.73;;;3.23;;
7683;SDS011;3884;48.616;12.872;2023-07-22T02:56:32;3.73;;;2.80;;
7683;SDS011;3884;48.616;12.872;2023-07-22T02:58:59;4.80;;;2.97;;
7683;SDS011;3884;48.616;12.872;2023-07-22T03:01:25;4.40;;;2.80;;
7683;SDS011;3884;48.616;12.872;2023-07-22T03:03:53;5.57;;;3.07;;
7683;SDS011;3884;48.616;12.872;2023-07-22T03:06:21;4.87;;;3.37;;
7683;SDS011;3884;48.616;12.872;2023-07-22T03:08:48;6.50;;;3.07;;
7683;SDS011;3884;48.616;12.872;2023-07-22T03:11:16;3.67;;;3.17;;
7683;SDS011;3884;48.616;12.872;2023-07-22T03:13:43;5.47;;;3.30;;
7683;SDS011;3884;48.616;12.872;2023-07-22T03:16:10;8.90;;;3.43;;
7683;SDS011;3884;48.616;12.872;2023-07-22T03:18:38;4.73;;;3.30;;
7683;SDS011;3884;48.616;12.872;2023-07-22T03:21:07;4.23;;;3.20;;
7683;SDS011;3884;48.616;12.872;2023-07-22T03:23:35;5.20;;;3.20;;
7683;SDS011;3884;48.616;12.872;2023-07-22T03:26:02;5.70;;;3.17;;
7683;SDS011;3884;48.616;12.872;2023-07-22T03:28:29;5.37;;;2.90;;
7683;SDS011;3884;48.616;12.872;2023-07-22T03:30:56;6.23;;;3.20;;
7683;SDS011;3884;48.616;12.872;2023-07-22T03:33:24;5.60;;;3.17;;
7683;SDS011;3884;48.616;12.872;2023-07-22T03:35:51;4.13;;;3.10;;
7683;SDS011;3884;48.616;12.872;2023-07-22T03:38:18;5.40;;;3.20;;
7683;SDS011;3884;48.616;12.872;2023-07-22T03:40:46;5.20;;;3.10;;
7683;SDS011;3884;48.616;12.872;2023-07-22T03:43:14;7.00;;;3.20;;
7683;SDS011;3884;48.616;12.872;2023-07-22T03:45:40;4.83;;;2.97;;
7683;SDS011;3884;48.616;12.872;2023-07-22T03:48:08;5.00;;;3.07;;
7683;SDS011;3884;48.616;12.872;2023-07-22T03:50:35;5.87;;;3.17;;
7683;SDS011;3884;48.616;12.872;2023-07-22T03:53:02;6.50;;;3.27;;
7683;SDS011;3884;48.616;12.872;2023-07-22T03:55:29;4.20;;;3.40;;
7683;SDS011;3884;48.616;12.872;2023-07-22T03:57:57;5.47;;;3.30;;
7683;SDS011;3884;48.616;12.872;2023-07-22T04:00:24;4.90;;;3.20;;
7683;SDS011;3884;48.616;12.872;2023-07-22T04:02:51;4.20;;;3.10;;
7683;SDS011;3884;48.616;12.872;2023-07-22T04:05:18;5.00;;;2.90;;
7683;SDS011;3884;48.616;12.872;2023-07-22T04:07:45;3.70;;;3.30;;
7683;SDS011;3884;48.616;12.872;2023-07-22T04:10:12;5.10;;;3.20;;
7683;SDS011;3884;48.616;12.872;2023-07-22T04:12:39;3.27;;;2.80;;
7683;SDS011;3884;48.616;12.872;2023-07-22T04:15:07;4.43;;;3.10;;
7683;SDS011;3884;48.616;12.872;2023-07-22T04:17:35;5.73;;;3.03;;
7683;SDS011;3884;48.616;12.872;2023-07-22T04:20:01;4.77;;;3.20;;
7683;SDS011;3884;48.616;12.872;2023-07-22T04:22:30;3.50;;;2.67;;
7683;SDS011;3884;48.616;12.872;2023-07-22T04:24:59;6.83;;;3.43;;
7683;SDS011;3884;48.616;12.872;2023-07-22T04:27:27;3.60;;;3.30;;
7683;SDS011;3884;48.616;12.872;2023-07-22T04:29:54;5.30;;;3.37;;
7683;SDS011;3884;48.616;12.872;2023-07-22T04:32:23;3.43;;;3.13;;
7683;SDS011;3884;48.616;12.872;2023-07-22T04:34:50;5.00;;;2.93;;
7683;SDS011;3884;48.616;12.872;2023-07-22T04:37:17;3.93;;;2.93;;
7683;SDS011;3884;48.616;12.872;2023-07-22T04:39:46;3.23;;;2.90;;
7683;SDS011;3884;48.616;12.872;2023-07-22T04:42:14;7.33;;;3.30;;
7683;SDS011;3884;48.616;12.872;2023-07-22T04:44:41;3.23;;;2.80;;
7683;SDS011;3884;48.616;12.872;2023-07-22T04:47:09;5.53;;;3.43;;
7683;SDS011;3884;48.616;12.872;2023-07-22T04:49:38;4.97;;;2.93;;
7683;SDS011;3884;48.616;12.872;2023-07-22T04:52:06;3.20;;;2.90;;
7683;SDS011;3884;48.616;12.872;2023-07-22T04:54:33;3.73;;;3.30;;
7683;SDS011;3884;48.616;12.872;2023-07-22T04:57:00;3.90;;;3.43;;
7683;SDS011;3884;48.616;12.872;2023-07-22T04:59:29;5.20;;;3.50;;
7683;SDS011;3884;48.616;12.872;2023-07-22T05:01:56;4.20;;;3.50;;
7683;SDS011;3884;48.616;12.872;2023-07-22T05:04:23;3.60;;;3.27;;
7683;SDS011;3884;48.616;12.872;2023-07-22T05:06:51;3.83;;;3.43;;
7683;SDS011;3884;48.616;12.872;2023-07-22T05:09:18;4.60;;;3.70;;
7683;SDS011;3884;48.616;12.872;2023-07-22T05:11:45;3.57;;;3.27;;
7683;SDS011;3884;48.616;12.872;2023-07-22T05:14:12;3.57;;;3.10;;
7683;SDS011;3884;48.616;12.872;2023-07-22T05:16:39;4.30;;;3.30;;
7683;SDS011;3884;48.616;12.872;2023-07-22T05:19:06;5.63;;;3.20;;
7683;SDS011;3884;48.616;12.872;2023-07-22T05:21:33;3.50;;;3.00;;
7683;SDS011;3884;48.616;12.872;2023-07-22T05:24:01;8.17;;;3.57;;
7683;SDS011;3884;48.616;12.872;2023-07-22T05:26:28;4.87;;;3.10;;
7683;SDS011;3884;48.616;12.872;2023-07-22T05:28:56;5.23;;;3.60;;
7683;SDS011;3884;48.616;12.872;2023-07-22T05:31:23;3.57;;;3.27;;
7683;SDS011;3884;48.616;12.872;2023-07-22T05:33:49;4.13;;;3.67;;
7683;SDS011;3884;48.616;12.872;2023-07-22T05:36:17;7.30;;;3.63;;
7683;SDS011;3884;48.616;12.872;2023-07-22T05:38:44;3.90;;;3.13;;
7683;SDS011;3884;48.616;12.872;2023-07-22T05:41:12;5.73;;;3.70;;
7683;SDS011;3884;48.616;12.872;2023-07-22T05:43:39;4.27;;;3.50;;
7683;SDS011;3884;48.616;12.872;2023-07-22T05:46:06;3.87;;;3.50;;
7683;SDS011;3884;48.616;12.872;2023-07-22T05:48:33;3.63;;;3.33;;
7683;SDS011;3884;48.616;12.872;2023-07-22T05:51:00;4.60;;;3.60;;
7683;SDS011;3884;48.616;12.872;2023-07-22T05:53:27;4.03;;;3.63;;
7683;SDS011;3884;48.616;12.872;2023-07-22T05:55:53;4.20;;;3.10;;
7683;SDS011;3884;48.616;12.872;2023-07-22T05:58:23;4.00;;;3.53;;
7683;SDS011;3884;48.616;12.872;2023-07-22T06:00:50;3.97;;;2.90;;
7683;SDS011;3884;48.616;12.872;2023-07-22T06:03:17;3.30;;;3.00;;
7683;SDS011;3884;48.616;12.872;2023-07-22T06:05:46;4.70;;;3.60;;
7683;SDS011;3884;48.616;12.872;2023-07-22T06:08:13;4.30;;;3.17;;
7683;SDS011;3884;48.616;12.872;2023-07-22T06:10:40;3.50;;;3.13;;
7683;SDS011;3884;48.616;12.872;2023-07-22T06:13:07;4.03;;;3.07;;
7683;SDS011;3884;48.616;12.872;2023-07-22T06:15:35;4.50;;;3.43;;
7683;SDS011;3884;48.616;12.872;2023-07-22T06:18:02;4.10;;;3.30;;
7683;SDS011;3884;48.616;12.872;2023-07-22T06:20:32;3.30;;;3.00;;
7683;SDS011;3884;48.616;12.872;2023-07-22T06:23:00;4.97;;;3.43;;
7683;SDS011;3884;48.616;12.872;2023-07-22T06:25:27;3.80;;;3.03;;
7683;SDS011;3884;48.616;12.872;2023-07-22T06:27:54;4.17;;;3.30;;
7683;SDS011;3884;48.616;12.872;2023-07-22T06:30:21;3.67;;;3.37;;
7683;SDS011;3884;48.616;12.872;2023-07-22T06:32:50;4.17;;;3.10;;
7683;SDS011;3884;48.616;12.872;2023-07-22T06:35:17;4.23;;;3.33;;
7683;SDS011;3884;48.616;12.872;2023-07-22T06:37:44;4.13;;;2.90;;
7683;SDS011;3884;48.616;12.872;2023-07-22T06:40:11;4.33;;;3.47;;
7683;SDS011;3884;48.616;12.872;2023-07-22T06:42:38;4.03;;;3.20;;
7683;SDS011;3884;48.616;12.872;2023-07-22T06:45:05;4.80;;;3.57;;
7683;SDS011;3884;48.616;12.872;2023-07-22T06:47:33;5.33;;;3.63;;
7683;SDS011;3884;48.616;12.872;2023-07-22T06:50:03;4.00;;;3.20;;
7683;SDS011;3884;48.616;12.872;2023-07-22T06:52:30;4.03;;;3.33;;
7683;SDS011;3884;48.616;12.872;2023-07-22T06:54:57;3.97;;;3.40;;
7683;SDS011;3884;48.616;12.872;2023-07-22T06:57:24;6.00;;;3.70;;
7683;SDS011;3884;48.616;12.872;2023-07-22T06:59:53;4.33;;;3.63;;
7683;SDS011;3884;48.616;12.872;2023-07-22T07:02:20;3.50;;;3.13;;
7683;SDS011;3884;48.616;12.872;2023-07-22T07:04:47;4.67;;;3.83;;
7683;SDS011;3884;48.616;12.872;2023-07-22T07:07:15;5.73;;;3.43;;
7683;SDS011;3884;48.616;12.872;2023-07-22T07:09:42;5.07;;;3.40;;
7683;SDS011;3884;48.616;12.872;2023-07-22T07:12:10;5.83;;;3.70;;
7683;SDS011;3884;48.616;12.872;2023-07-22T07:14:37;3.83;;;3.47;;
7683;SDS011;3884;48.616;12.872;2023-07-22T07:17:04;3.90;;;3.40;;
7683;SDS011;3884;48.616;12.872;2023-07-22T07:19:31;5.13;;;3.13;;
7683;SDS011;3884;48.616;12.872;2023-07-22T07:21:58;4.90;;;3.87;;
7683;SDS011;3884;48.616;12.872;2023-07-22T07:24:27;4.00;;;3.40;;
7683;SDS011;3884;48.616;12.872;2023-07-22T07:26:54;7.10;;;3.43;;
7683;SDS011;3884;48.616;12.872;2023-07-22T07:29:21;3.73;;;3.30;;
7683;SDS011;3884;48.616;12.872;2023-07-22T07:31:48;4.37;;;3.23;;
7683;SDS011;3884;48.616;12.872;2023-07-22T07:34:15;5.07;;;3.43;;
7683;SDS011;3884;48.616;12.872;2023-07-22T07:36:42;6.17;;;3.60;;
7683;SDS011;3884;48.616;12.872;2023-07-22T07:39:09;4.30;;;3.70;;
7683;SDS011;3884;48.616;12.872;2023-07-22T07:41:37;3.93;;;3.43;;
7683;SDS011;3884;48.616;12.872;2023-07-22T07:44:04;4.20;;;3.80;;
7683;SDS011;3884;48.616;12.872;2023-07-22T07:46:31;4.07;;;3.50;;
7683;SDS011;3884;48.616;12.872;2023-07-22T07:48:58;4.23;;;3.80;;
7683;SDS011;3884;48.616;12.872;2023-07-22T07:51:27;6.13;;;4.00;;
7683;SDS011;3884;48.616;12.872;2023-07-22T07:53:55;4.23;;;3.67;;
7683;SDS011;3884;48.616;12.872;2023-07-22T07:56:23;6.90;;;4.03;;
7683;SDS011;3884;48.616;12.872;2023-07-22T07:58:52;4.27;;;3.80;;
7683;SDS011;3884;48.616;12.872;2023-07-22T08:01:20;4.97;;;3.53;;
7683;SDS011;3884;48.616;12.872;2023-07-22T08:03:47;6.20;;;3.60;;
7683;SDS011;3884;48.616;12.872;2023-07-22T08:06:14;6.97;;;3.73;;
7683;SDS011;3884;48.616;12.872;2023-07-22T08:08:41;3.73;;;3.33;;
7683;SDS011;3884;48.616;12.872;2023-07-22T08:11:09;4.40;;;3.70;;
7683;SDS011;3884;48.616;12.872;2023-07-22T08:13:38;6.00;;;3.30;;
7683;SDS011;3884;48.616;12.872;2023-07-22T08:16:08;5.07;;;3.77;;
7683;SDS011;3884;48.616;12.872;2023-07-22T08:18:35;5.47;;;3.30;;
7683;SDS011;3884;48.616;12.872;2023-07-22T08:21:03;5.30;;;3.70;;
7683;SDS011;3884;48.616;12.872;2023-07-22T08:23:31;4.63;;;3.43;;
7683;SDS011;3884;48.616;12.872;2023-07-22T08:25:58;6.73;;;3.60;;
7683;SDS011;3884;48.616;12.872;2023-07-22T08:28:25;4.53;;;3.47;;
7683;SDS011;3884;48.616;12.872;2023-07-22T08:30:54;3.47;;;3.00;;
7683;SDS011;3884;48.616;12.872;2023-07-22T08:33:23;4.73;;;3.50;;
7683;SDS011;3884;48.616;12.872;2023-07-22T08:35:50;3.60;;;2.70;;
7683;SDS011;3884;48.616;12.872;2023-07-22T08:38:17;3.47;;;2.80;;
7683;SDS011;3884;48.616;12.872;2023-07-22T08:40:47;4.53;;;2.87;;
7683;SDS011;3884;48.616;12.872;2023-07-22T08:43:16;4.10;;;3.23;;
7683;SDS011;3884;48.616;12.872;2023-07-22T08:45:46;4.33;;;2.83;;
7683;SDS011;3884;48.616;12.872;2023-07-22T08:48:15;3.90;;;3.00;;
7683;SDS011;3884;48.616;12.872;2023-07-22T08:50:49;3.83;;;2.63;;
7683;SDS011;3884;48.616;12.872;2023-07-22T08:53:18;3.40;;;2.67;;
7683;SDS011;3884;48.616;12.872;2023-07-22T08:55:46;3.23;;;2.77;;
7683;SDS011;3884;48.616;12.872;2023-07-22T08:58:14;4.43;;;2.70;;
7683;SDS011;3884;48.616;12.872;2023-07-22T09:00:41;2.93;;;2.63;;
7683;SDS011;3884;48.616;12.872;2023-07-22T09:03:10;3.77;;;3.20;;
7683;SDS011;3884;48.616;12.872;2023-07-22T09:05:39;5.37;;;2.60;;
7683;SDS011;3884;48.616;12.872;2023-07-22T09:08:09;3.07;;;2.63;;
7683;SDS011;3884;48.616;12.872;2023-07-22T09:10:36;3.63;;;2.80;;
7683;SDS011;3884;48.616;12.872;2023-07-22T09:13:04;4.57;;;2.50;;
7683;SDS011;3884;48.616;12.872;2023-07-22T09:15:34;3.17;;;2.80;;
7683;SDS011;3884;48.616;12.872;2023-07-22T09:18:02;3.57;;;2.70;;
7683;SDS011;3884;48.616;12.872;2023-07-22T09:20:29;3.10;;;2.80;;
7683;SDS011;3884;48.616;12.872;2023-07-22T09:22:56;2.97;;;2.57;;
7683;SDS011;3884;48.616;12.872;2023-07-22T09:25:26;5.23;;;2.43;;
7683;SDS011;3884;48.616;12.872;2023-07-22T09:27:55;4.10;;;2.53;;
7683;SDS011;3884;48.616;12.872;2023-07-22T09:30:25;2.80;;;2.53;;
7683;SDS011;3884;48.616;12.872;2023-07-22T09:32:53;6.67;;;2.70;;
7683;SDS011;3884;48.616;12.872;2023-07-22T09:35:21;4.30;;;2.70;;
7683;SDS011;3884;48.616;12.872;2023-07-22T09:37:48;4.37;;;2.50;;
7683;SDS011;3884;48.616;12.872;2023-07-22T09:40:16;4.07;;;2.60;;
7683;SDS011;3884;48.616;12.872;2023-07-22T09:42:47;2.57;;;2.30;;
7683;SDS011;3884;48.616;12.872;2023-07-22T09:45:15;3.93;;;3.10;;
7683;SDS011;3884;48.616;12.872;2023-07-22T09:47:43;4.40;;;3.10;;
7683;SDS011;3884;48.616;12.872;2023-07-22T09:50:12;5.27;;;3.30;;
7683;SDS011;3884;48.616;12.872;2023-07-22T09:52:43;2.73;;;2.53;;
7683;SDS011;3884;48.616;12.872;2023-07-22T09:55:13;4.47;;;2.33;;
7683;SDS011;3884;48.616;12.872;2023-07-22T09:57:43;4.33;;;2.60;;
7683;SDS011;3884;48.616;12.872;2023-07-22T10:00:13;4.40;;;2.40;;
7683;SDS011;3884;48.616;12.872;2023-07-22T10:02:42;4.53;;;2.60;;
7683;SDS011;3884;48.616;12.872;2023-07-22T10:05:11;3.63;;;2.20;;
7683;SDS011;3884;48.616;12.872;2023-07-22T10:07:42;3.47;;;2.80;;
7683;SDS011;3884;48.616;12.872;2023-07-22T10:10:11;3.67;;;2.30;;
7683;SDS011;3884;48.616;12.872;2023-07-22T10:12:39;3.87;;;2.57;;
7683;SDS011;3884;48.616;12.872;2023-07-22T10:15:09;2.60;;;2.30;;
7683;SDS011;3884;48.616;12.872;2023-07-22T10:17:38;3.97;;;2.20;;
7683;SDS011;3884;48.616;12.872;2023-07-22T10:20:06;2.77;;;2.13;;
7683;SDS011;3884;48.616;12.872;2023-07-22T10:22:35;4.20;;;2.07;;
7683;SDS011;3884;48.616;12.872;2023-07-22T10:25:04;2.20;;;2.00;;
7683;SDS011;3884;48.616;12.872;2023-07-22T10:27:32;2.93;;;2.00;;
7683;SDS011;3884;48.616;12.872;2023-07-22T10:30:00;2.60;;;2.40;;
7683;SDS011;3884;48.616;12.872;2023-07-22T10:32:31;3.13;;;2.50;;
7683;SDS011;3884;48.616;12.872;2023-07-22T10:35:02;2.63;;;2.43;;
7683;SDS011;3884;48.616;12.872;2023-07-22T10:37:30;2.87;;;2.20;;
7683;SDS011;3884;48.616;12.872;2023-07-22T10:39:58;2.10;;;1.90;;
7683;SDS011;3884;48.616;12.872;2023-07-22T10:42:31;6.20;;;2.27;;
7683;SDS011;3884;48.616;12.872;2023-07-22T10:44:59;3.27;;;2.60;;
7683;SDS011;3884;48.616;12.872;2023-07-22T10:47:31;3.17;;;2.40;;
7683;SDS011;3884;48.616;12.872;2023-07-22T10:50:06;4.10;;;2.57;;
7683;SDS011;3884;48.616;12.872;2023-07-22T10:52:38;2.57;;;2.00;;
7683;SDS011;3884;48.616;12.872;2023-07-22T10:57:52;2.20;;;2.00;;
7683;SDS011;3884;48.616;12.872;2023-07-22T11:00:21;6.37;;;2.57;;
7683;SDS011;3884;48.616;12.872;2023-07-22T11:05:50;4.20;;;2.20;;
7683;SDS011;3884;48.616;12.872;2023-07-22T11:08:35;3.07;;;2.00;;
7683;SDS011;3884;48.616;12.872;2023-07-22T11:11:03;2.93;;;2.10;;
7683;SDS011;3884;48.616;12.872;2023-07-22T11:13:34;2.10;;;1.90;;
7683;SDS011;3884;48.616;12.872;2023-07-22T11:16:04;3.90;;;2.37;;
7683;SDS011;3884;48.616;12.872;2023-07-22T11:18:35;2.63;;;2.10;;
7683;SDS011;3884;48.616;12.872;2023-07-22T11:21:08;3.63;;;1.90;;
7683;SDS011;3884;48.616;12.872;2023-07-22T11:23:36;2.40;;;2.00;;
7683;SDS011;3884;48.616;12.872;2023-07-22T11:26:03;4.93;;;2.17;;
7683;SDS011;3884;48.616;12.872;2023-07-22T11:28:30;2.67;;;2.10;;
7683;SDS011;3884;48.616;12.872;2023-07-22T11:30:57;2.97;;;2.30;;
7683;SDS011;3884;48.616;12.872;2023-07-22T11:33:26;2.17;;;1.97;;
7683;SDS011;3884;48.616;12.872;2023-07-22T11:36:04;3.60;;;2.47;;
7683;SDS011;3884;48.616;12.872;2023-07-22T11:38:33;4.17;;;2.37;;
7683;SDS011;3884;48.616;12.872;2023-07-22T11:41:00;2.40;;;2.20;;
7683;SDS011;3884;48.616;12.872;2023-07-22T11:43:27;3.43;;;2.10;;
7683;SDS011;3884;48.616;12.872;2023-07-22T11:45:54;3.10;;;2.17;;
7683;SDS011;3884;48.616;12.872;2023-07-22T11:48:21;2.40;;;2.00;;
7683;SDS011;3884;48.616;12.872;2023-07-22T11:50:48;2.67;;;2.40;;
7683;SDS011;3884;48.616;12.872;2023-07-22T11:53:15;3.63;;;2.30;;
7683;SDS011;3884;48.616;12.872;2023-07-22T11:55:43;3.00;;;2.13;;
7683;SDS011;3884;48.616;12.872;2023-07-22T11:58:10;2.13;;;1.93;;
7683;SDS011;3884;48.616;12.872;2023-07-22T12:00:37;3.57;;;2.17;;
7683;SDS011;3884;48.616;12.872;2023-07-22T12:03:09;3.23;;;2.10;;
7683;SDS011;3884;48.616;12.872;2023-07-22T12:05:36;2.20;;;2.00;;
7683;SDS011;3884;48.616;12.872;2023-07-22T12:08:03;3.77;;;2.37;;
7683;SDS011;3884;48.616;12.872;2023-07-22T12:10:31;2.40;;;2.20;;
7683;SDS011;3884;48.616;12.872;2023-07-22T12:13:01;7.17;;;2.43;;
7683;SDS011;3884;48.616;12.872;2023-07-22T12:15:28;2.17;;;1.97;;
7683;SDS011;3884;48.616;12.872;2023-07-22T12:17:55;3.50;;;2.23;;
7683;SDS011;3884;48.616;12.872;2023-07-22T12:20:24;2.63;;;2.37;;
7683;SDS011;3884;48.616;12.872;2023-07-22T12:22:52;2.80;;;2.40;;
7683;SDS011;3884;48.616;12.872;2023-07-22T12:25:19;4.57;;;2.23;;
7683;SDS011;3884;48.616;12.872;2023-07-22T12:27:46;4.17;;;2.73;;
7683;SDS011;3884;48.616;12.872;2023-07-22T12:30:14;2.47;;;1.90;;
7683;SDS011;3884;48.616;12.872;2023-07-22T12:32:41;5.53;;;2.10;;
7683;SDS011;3884;48.616;12.872;2023-07-22T12:35:08;2.57;;;2.00;;
7683;SDS011;3884;48.616;12.872;2023-07-22T12:37:36;3.20;;;2.00;;
7683;SDS011;3884;48.616;12.872;2023-07-22T12:40:03;6.00;;;2.43;;
7683;SDS011;3884;48.616;12.872;2023-07-22T12:42:33;2.80;;;2.07;;
7683;SDS011;3884;48.616;12.872;2023-07-22T12:45:01;4.13;;;2.13;;
7683;SDS011;3884;48.616;12.872;2023-07-22T12:47:30;4.63;;;1.93;;
7683;SDS011;3884;48.616;12.872;2023-07-22T12:49:57;4.20;;;2.70;;
7683;SDS011;3884;48.616;12.872;2023-07-22T12:52:24;4.93;;;2.80;;
7683;SDS011;3884;48.616;12.872;2023-07-22T12:54:50;4.00;;;2.30;;
7683;SDS011;3884;48.616;12.872;2023-07-22T12:57:17;2.30;;;2.10;;
7683;SDS011;3884;48.616;12.872;2023-07-22T12:59:44;2.30;;;2.10;;
7683;SDS011;3884;48.616;12.872;2023-07-22T13:02:11;2.47;;;2.20;;
7683;SDS011;3884;48.616;12.872;2023-07-22T13:04:40;2.30;;;2.10;;
7683;SDS011;3884;48.616;12.872;2023-07-22T13:07:09;2.77;;;2.00;;
7683;SDS011;3884;48.616;12.872;2023-07-22T13:09:36;3.73;;;2.07;;
7683;SDS011;3884;48.616;12.872;2023-07-22T13:12:03;2.73;;;2.20;;
7683;SDS011;3884;48.616;12.872;2023-07-22T13:14:31;3.53;;;1.80;;
7683;SDS011;3884;48.616;12.872;2023-07-22T13:16:58;4.33;;;2.33;;
7683;SDS011;3884;48.616;12.872;2023-07-22T13:19:25;2.70;;;2.30;;
7683;SDS011;3884;48.616;12.872;2023-07-22T13:21:53;2.73;;;2.27;;
7683;SDS011;3884;48.616;12.872;2023-07-22T13:24:20;3.50;;;2.27;;
7683;SDS011;3884;48.616;12.872;2023-07-22T13:26:47;3.33;;;2.20;;
7683;SDS011;3884;48.616;12.872;2023-07-22T13:29:14;3.30;;;2.33;;
7683;SDS011;3884;48.616;12.872;2023-07-22T13:31:42;2.53;;;2.33;;
7683;SDS011;3884;48.616;12.872;2023-07-22T13:34:09;2.10;;;1.80;;
7683;SDS011;3884;48.616;12.872;2023-07-22T13:36:36;2.50;;;2.00;;
7683;SDS011;3884;48.616;12.872;2023-07-22T13:39:04;3.67;;;2.30;;
7683;SDS011;3884;48.616;12.872;2023-07-22T13:41:31;2.40;;;2.20;;
7683;SDS011;3884;48.616;12.872;2023-07-22T13:43:58;3.60;;;2.20;;
7683;SDS011;3884;48.616;12.872;2023-07-22T13:46:25;2.97;;;2.23;;
7683;SDS011;3884;48.616;12.872;2023-07-22T13:48:52;3.63;;;2.10;;
7683;SDS011;3884;48.616;12.872;2023-07-22T13:51:19;2.00;;;1.80;;
7683;SDS011;3884;48.616;12.872;2023-07-22T13:53:46;2.20;;;2.00;;
7683;SDS011;3884;48.616;12.872;2023-07-22T13:56:15;3.17;;;2.20;;
7683;SDS011;3884;48.616;12.872;2023-07-22T13:58:41;3.33;;;2.23;;
7683;SDS011;3884;48.616;12.872;2023-07-22T14:01:08;3.10;;;2.13;;
7683;SDS011;3884;48.616;12.872;2023-07-22T14:03:35;2.60;;;2.10;;
7683;SDS011;3884;48.616;12.872;2023-07-22T14:06:02;2.70;;;2.10;;
7683;SDS011;3884;48.616;12.872;2023-07-22T14:08:29;2.70;;;2.20;;
7683;SDS011;3884;48.616;12.872;2023-07-22T14:10:56;2.40;;;2.20;;
7683;SDS011;3884;48.616;12.872;2023-07-22T14:13:25;3.83;;;2.17;;
7683;SDS011;3884;48.616;12.872;2023-07-22T14:15:52;3.50;;;2.00;;
7683;SDS011;3884;48.616;12.872;2023-07-22T14:18:19;2.50;;;2.30;;
7683;SDS011;3884;48.616;12.872;2023-07-22T14:20:46;2.37;;;2.03;;
7683;SDS011;3884;48.616;12.872;2023-07-22T14:23:12;3.27;;;2.10;;
7683;SDS011;3884;48.616;12.872;2023-07-22T14:25:40;2.70;;;2.10;;
7683;SDS011;3884;48.616;12.872;2023-07-22T14:28:07;5.40;;;2.30;;
7683;SDS011;3884;48.616;12.872;2023-07-22T14:30:35;2.90;;;2.23;;
7683;SDS011;3884;48.616;12.872;2023-07-22T14:33:02;3.30;;;2.40;;
7683;SDS011;3884;48.616;12.872;2023-07-22T14:35:29;3.07;;;2.03;;
7683;SDS011;3884;48.616;12.872;2023-07-22T14:37:57;3.53;;;2.20;;
7683;SDS011;3884;48.616;12.872;2023-07-22T14:40:24;3.37;;;2.30;;
7683;SDS011;3884;48.616;12.872;2023-07-22T14:42:51;2.80;;;2.60;;
7683;SDS011;3884;48.616;12.872;2023-07-22T14:45:19;2.20;;;2.00;;
7683;SDS011;3884;48.616;12.872;2023-07-22T14:47:47;4.07;;;2.27;;
7683;SDS011;3884;48.616;12.872;2023-07-22T14:50:14;2.90;;;2.13;;
7683;SDS011;3884;48.616;12.872;2023-07-22T14:52:41;5.07;;;3.47;;
7683;SDS011;3884;48.616;12.872;2023-07-22T14:55:09;3.27;;;2.17;;
7683;SDS011;3884;48.616;12.872;2023-07-22T14:57:36;2.17;;;1.97;;
7683;SDS011;3884;48.616;12.872;2023-07-22T15:00:03;2.80;;;2.40;;
7683;SDS011;3884;48.616;12.872;2023-07-22T15:02:31;3.13;;;2.13;;
7683;SDS011;3884;48.616;12.872;2023-07-22T15:04:59;2.50;;;2.30;;
7683;SDS011;3884;48.616;12.872;2023-07-22T15:07:26;2.80;;;2.20;;
7683;SDS011;3884;48.616;12.872;2023-07-22T15:09:53;2.50;;;2.30;;